sensor_id;sensor_type;location;lat;lon;timestamp;pressure;altitude;pressure_sealevel;temperature;humidity
32083;BME280;18597;48.328;7.932;2023-02-10T00:01:10;101586.91;;;-3.97;100.00
32083;BME280;18597;48.328;7.932;2023-02-10T00:03:36;101592.94;;;-4.10;100.00
32083;BME280;18597;48.328;7.932;2023-02-10T00:06:04;101592.09;;;-4.08;100.00
32083;BME280;18597;48.328;7.932;2023-02-10T00:08:30;101592.97;;;-4.06;100.00
32083;BME280;18597;48.328;7.932;2023-02-10T00:10:58;101584.41;;;-3.77;100.00
32083;BME280;18597;48.328;7.932;2023-02-10T00:13:25;101580.97;;;-3.66;100.00
32083;BME280;18597;48.328;7.932;2023-02-10T00:15:51;101587.09;;;-3.59;100.00
32083;BME280;18597;48.328;7.932;2023-02-10T00:18:17;101583.56;;;-3.64;100.00
32083;BME280;18597;48.328;7.932;2023-02-10T00:20:43;101586.22;;;-3.63;100.00
32083;BME280;18597;48.328;7.932;2023-02-10T00:23:09;101572.31;;;-3.52;100.00
32083;BME280;18597;48.328;7.932;2023-02-10T00:25:36;101581.88;;;-3.50;100.00
32083;BME280;18597;48.328;7.932;2023-02-10T00:28:02;101581.91;;;-3.44;100.00
32083;BME280;18597;48.328;7.932;2023-02-10T00:30:28;101577.56;;;-3.32;100.00
32083;BME280;18597;48.328;7.932;2023-02-10T00:32:54;101574.06;;;-3.33;100.00
32083;BME280;18597;48.328;7.932;2023-02-10T00:35:20;101582.72;;;-3.57;100.00
32083;BME280;18597;48.328;7.932;2023-02-10T00:37:46;101581.84;;;-3.70;100.00
32083;BME280;18597;48.328;7.932;2023-02-10T00:40:12;101575.75;;;-3.59;100.00
32083;BME280;18597;48.328;7.932;2023-02-10T00:42:38;101564.47;;;-3.52;100.00
32083;BME280;18597;48.328;7.932;2023-02-10T00:45:05;101564.47;;;-3.48;100.00
32083;BME280;18597;48.328;7.932;2023-02-10T00:47:31;101563.63;;;-3.47;100.00
32083;BME280;18597;48.328;7.932;2023-02-10T00:49:56;101566.22;;;-3.51;100.00
32083;BME280;18597;48.328;7.932;2023-02-10T00:52:23;101577.50;;;-3.57;100.00
32083;BME280;18597;48.328;7.932;2023-02-10T00:54:49;101585.25;;;-3.78;100.00
32083;BME280;18597;48.328;7.932;2023-02-10T00:57:15;101586.06;;;-3.93;100.00
32083;BME280;18597;48.328;7.932;2023-02-10T00:59:41;101584.22;;;-4.15;100.00
32083;BME280;18597;48.328;7.932;2023-02-10T01:02:07;101576.28;;;-4.32;100.00
32083;BME280;18597;48.328;7.932;2023-02-10T01:04:33;101576.22;;;-4.41;100.00
32083;BME280;18597;48.328;7.932;2023-02-10T01:06:58;101579.00;;;-4.09;100.00
32083;BME280;18597;48.328;7.932;2023-02-10T01:09:24;101575.56;;;-4.05;100.00
32083;BME280;18597;48.328;7.932;2023-02-10T01:11:50;101584.28;;;-4.05;100.00
32083;BME280;18597;48.328;7.932;2023-02-10T01:14:16;101594.69;;;-4.09;100.00
32083;BME280;18597;48.328;7.932;2023-02-10T01:16:42;101585.13;;;-4.07;100.00
32083;BME280;18597;48.328;7.932;2023-02-10T01:19:08;101594.63;;;-4.20;100.00
32083;BME280;18597;48.328;7.932;2023-02-10T01:21:34;101595.38;;;-4.38;100.00
32083;BME280;18597;48.328;7.932;2023-02-10T01:24:03;101594.47;;;-4.43;100.00
32083;BME280;18597;48.328;7.932;2023-02-10T01:26:29;101609.16;;;-4.56;100.00
32083;BME280;18597;48.328;7.932;2023-02-10T01:28:55;101598.88;;;-4.33;100.00
32083;BME280;18597;48.328;7.932;2023-02-10T01:31:21;101596.16;;;-4.48;100.00
32083;BME280;18597;48.328;7.932;2023-02-10T01:33:51;101597.84;;;-4.59;100.00
32083;BME280;18597;48.328;7.932;2023-02-10T01:36:21;101600.50;;;-4.50;100.00
32083;BME280;18597;48.328;7.932;2023-02-10T01:38:47;101600.56;;;-4.39;100.00
32083;BME280;18597;48.328;7.932;2023-02-10T01:41:16;101599.59;;;-4.58;100.00
32083;BME280;18597;48.328;7.932;2023-02-10T01:44:06;101602.34;;;-4.37;100.00
32083;BME280;18597;48.328;7.932;2023-02-10T01:46:34;101607.59;;;-4.32;100.00
32083;BME280;18597;48.328;7.932;2023-02-10T01:49:07;101609.22;;;-4.47;100.00
32083;BME280;18597;48.328;7.932;2023-02-10T01:52:00;101619.72;;;-4.39;100.00
32083;BME280;18597;48.328;7.932;2023-02-10T01:54:33;101619.44;;;-4.76;100.00
32083;BME280;18597;48.328;7.932;2023-02-10T01:57:01;101626.22;;;-4.93;100.00
32083;BME280;18597;48.328;7.932;2023-02-10T01:59:32;101628.59;;;-5.16;100.00
32083;BME280;18597;48.328;7.932;2023-02-10T02:02:00;101629.34;;;-5.27;100.00
32083;BME280;18597;48.328;7.932;2023-02-10T02:04:35;101633.56;;;-5.39;100.00
32083;BME280;18597;48.328;7.932;2023-02-10T02:07:03;101619.16;;;-5.05;100.00
32083;BME280;18597;48.328;7.932;2023-02-10T02:09:29;101620.25;;;-4.81;100.00
32083;BME280;18597;48.328;7.932;2023-02-10T02:12:20;101626.28;;;-4.88;100.00
32083;BME280;18597;48.328;7.932;2023-02-10T02:14:57;101615.78;;;-4.91;100.00
32083;BME280;18597;48.328;7.932;2023-02-10T02:17:39;101608.06;;;-4.82;100.00
32083;BME280;18597;48.328;7.932;2023-02-10T02:20:29;101616.78;;;-4.82;100.00
32083;BME280;18597;48.328;7.932;2023-02-10T02:23:38;101626.84;;;-5.18;100.00
32083;BME280;18597;48.328;7.932;2023-02-10T02:26:33;101620.13;;;-4.92;100.00
32083;BME280;18597;48.328;7.932;2023-02-10T02:30:00;101613.94;;;-5.06;100.00
32083;BME280;18597;48.328;7.932;2023-02-10T02:32:33;101613.16;;;-4.96;100.00
32083;BME280;18597;48.328;7.932;2023-02-10T02:35:07;101612.44;;;-4.78;100.00
32083;BME280;18597;48.328;7.932;2023-02-10T02:37:42;101611.63;;;-4.72;100.00
32083;BME280;18597;48.328;7.932;2023-02-10T02:40:10;101616.84;;;-4.69;100.00
32083;BME280;18597;48.328;7.932;2023-02-10T02:42:37;101622.06;;;-4.72;100.00
32083;BME280;18597;48.328;7.932;2023-02-10T02:45:21;101623.66;;;-4.88;100.00
32083;BME280;18597;48.328;7.932;2023-02-10T02:48:19;101627.78;;;-5.12;100.00
32083;BME280;18597;48.328;7.932;2023-02-10T02:51:08;101634.50;;;-5.32;100.00
32083;BME280;18597;48.328;7.932;2023-02-10T02:59:33;101639.63;;;-5.41;100.00
32083;BME280;18597;48.328;7.932;2023-02-10T03:02:09;101631.97;;;-5.27;100.00
32083;BME280;18597;48.328;7.932;2023-02-10T03:04:37;101637.41;;;-5.06;100.00
32083;BME280;18597;48.328;7.932;2023-02-10T03:07:04;101638.22;;;-5.12;100.00
32083;BME280;18597;48.328;7.932;2023-02-10T03:09:31;101638.81;;;-5.36;100.00
32083;BME280;18597;48.328;7.932;2023-02-10T03:11:57;101643.78;;;-5.54;100.00
32083;BME280;18597;48.328;7.932;2023-02-10T03:14:23;101643.69;;;-5.63;100.00
32083;BME280;18597;48.328;7.932;2023-02-10T03:16:49;101648.88;;;-5.66;100.00
32083;BME280;18597;48.328;7.932;2023-02-10T03:19:15;101644.34;;;-5.79;100.00
32083;BME280;18597;48.328;7.932;2023-02-10T03:21:41;101640.75;;;-5.88;100.00
32083;BME280;18597;48.328;7.932;2023-02-10T03:24:07;101640.41;;;-5.48;100.00
32083;BME280;18597;48.328;7.932;2023-02-10T03:26:35;101637.88;;;-5.41;100.00
32083;BME280;18597;48.328;7.932;2023-02-10T03:29:02;101635.94;;;-5.59;100.00
32083;BME280;18597;48.328;7.932;2023-02-10T03:31:28;101642.06;;;-5.52;100.00
32083;BME280;18597;48.328;7.932;2023-02-10T03:33:54;101638.69;;;-5.45;100.00
32083;BME280;18597;48.328;7.932;2023-02-10T03:36:19;101638.63;;;-5.51;100.00
32083;BME280;18597;48.328;7.932;2023-02-10T03:38:45;101650.56;;;-5.68;100.00
32083;BME280;18597;48.328;7.932;2023-02-10T03:41:12;101646.97;;;-5.76;100.00
32083;BME280;18597;48.328;7.932;2023-02-10T03:43:39;101653.78;;;-5.86;100.00
32083;BME280;18597;48.328;7.932;2023-02-10T03:46:07;101645.63;;;-5.45;100.00
32083;BME280;18597;48.328;7.932;2023-02-10T03:48:34;101650.16;;;-5.29;100.00
32083;BME280;18597;48.328;7.932;2023-02-10T03:51:02;101655.59;;;-5.09;100.00
32083;BME280;18597;48.328;7.932;2023-02-10T03:53:30;101652.19;;;-5.04;100.00
32083;BME280;18597;48.328;7.932;2023-02-10T03:55:56;101653.91;;;-5.06;100.00
32083;BME280;18597;48.328;7.932;2023-02-10T03:58:22;101658.25;;;-5.06;100.00
32083;BME280;18597;48.328;7.932;2023-02-10T04:00:48;101667.56;;;-5.28;100.00
32083;BME280;18597;48.328;7.932;2023-02-10T04:03:15;101666.66;;;-5.30;100.00
32083;BME280;18597;48.328;7.932;2023-02-10T04:05:41;101674.38;;;-5.38;100.00
32083;BME280;18597;48.328;7.932;2023-02-10T04:08:07;101677.56;;;-5.60;100.00
32083;BME280;18597;48.328;7.932;2023-02-10T04:10:33;101682.09;;;-5.47;100.00
32083;BME280;18597;48.328;7.932;2023-02-10T04:12:58;101685.41;;;-5.59;100.00
32083;BME280;18597;48.328;7.932;2023-02-10T04:15:24;101684.28;;;-5.79;100.00
32083;BME280;18597;48.328;7.932;2023-02-10T04:17:50;101687.09;;;-5.64;100.00
32083;BME280;18597;48.328;7.932;2023-02-10T04:20:16;101690.28;;;-5.83;100.00
32083;BME280;18597;48.328;7.932;2023-02-10T04:22:42;101689.59;;;-5.68;100.00
32083;BME280;18597;48.328;7.932;2023-02-10T04:25:08;101695.66;;;-5.71;100.00
32083;BME280;18597;48.328;7.932;2023-02-10T04:27:34;101692.22;;;-5.68;100.00
32083;BME280;18597;48.328;7.932;2023-02-10T04:30:00;101689.47;;;-5.80;100.00
32083;BME280;18597;48.328;7.932;2023-02-10T04:32:26;101690.78;;;-5.45;100.00
32083;BME280;18597;48.328;7.932;2023-02-10T04:34:52;101691.47;;;-5.60;100.00
32083;BME280;18597;48.328;7.932;2023-02-10T04:37:18;101699.25;;;-5.63;100.00
32083;BME280;18597;48.328;7.932;2023-02-10T04:39:44;101698.25;;;-5.72;100.00
32083;BME280;18597;48.328;7.932;2023-02-10T04:42:10;101698.06;;;-5.84;100.00
32083;BME280;18597;48.328;7.932;2023-02-10T04:44:36;101693.91;;;-5.73;100.00
32083;BME280;18597;48.328;7.932;2023-02-10T04:47:02;101691.34;;;-5.67;100.00
32083;BME280;18597;48.328;7.932;2023-02-10T04:49:28;101688.63;;;-5.76;100.00
32083;BME280;18597;48.328;7.932;2023-02-10T04:51:54;101687.31;;;-5.45;100.00
32083;BME280;18597;48.328;7.932;2023-02-10T04:54:20;101692.56;;;-5.42;100.00
32083;BME280;18597;48.328;7.932;2023-02-10T04:56:46;101681.47;;;-5.27;100.00
32083;BME280;18597;48.328;7.932;2023-02-10T04:59:12;101686.69;;;-5.27;100.00
32083;BME280;18597;48.328;7.932;2023-02-10T05:01:38;101676.38;;;-5.17;100.00
32083;BME280;18597;48.328;7.932;2023-02-10T05:04:04;101681.63;;;-5.14;100.00
32083;BME280;18597;48.328;7.932;2023-02-10T05:06:30;101689.38;;;-5.18;100.00
32083;BME280;18597;48.328;7.932;2023-02-10T05:08:56;101686.75;;;-5.21;100.00
32083;BME280;18597;48.328;7.932;2023-02-10T05:11:22;101687.50;;;-5.30;100.00
32083;BME280;18597;48.328;7.932;2023-02-10T05:13:48;101681.41;;;-5.32;100.00
32083;BME280;18597;48.328;7.932;2023-02-10T05:16:14;101690.22;;;-5.21;100.00
32083;BME280;18597;48.328;7.932;2023-02-10T05:18:40;101692.94;;;-5.10;100.00
32083;BME280;18597;48.328;7.932;2023-02-10T05:21:07;101682.50;;;-5.13;100.00
32083;BME280;18597;48.328;7.932;2023-02-10T05:23:35;101692.94;;;-5.12;100.00
32083;BME280;18597;48.328;7.932;2023-02-10T05:26:01;101685.91;;;-5.17;100.00
32083;BME280;18597;48.328;7.932;2023-02-10T05:28:27;101692.06;;;-5.11;100.00
32083;BME280;18597;48.328;7.932;2023-02-10T05:30:53;101692.59;;;-5.41;100.00
32083;BME280;18597;48.328;7.932;2023-02-10T05:33:19;101692.59;;;-5.41;100.00
32083;BME280;18597;48.328;7.932;2023-02-10T05:35:45;101687.53;;;-5.28;100.00
32083;BME280;18597;48.328;7.932;2023-02-10T05:38:11;101692.84;;;-5.19;100.00
32083;BME280;18597;48.328;7.932;2023-02-10T05:40:38;101703.03;;;-5.38;100.00
32083;BME280;18597;48.328;7.932;2023-02-10T05:43:04;101699.44;;;-5.49;100.00
32083;BME280;18597;48.328;7.932;2023-02-10T05:45:30;101695.84;;;-5.57;100.00
32083;BME280;18597;48.328;7.932;2023-02-10T05:47:55;101704.38;;;-5.69;100.00
32083;BME280;18597;48.328;7.932;2023-02-10T05:50:21;101704.78;;;-5.37;100.00
32083;BME280;18597;48.328;7.932;2023-02-10T05:52:47;101709.94;;;-5.43;100.00
32083;BME280;18597;48.328;7.932;2023-02-10T05:55:13;101710.72;;;-5.48;100.00
32083;BME280;18597;48.328;7.932;2023-02-10T05:57:39;101721.81;;;-5.63;100.00
32083;BME280;18597;48.328;7.932;2023-02-10T06:00:06;101723.34;;;-5.76;100.00
32083;BME280;18597;48.328;7.932;2023-02-10T06:02:33;101730.28;;;-5.76;100.00
32083;BME280;18597;48.328;7.932;2023-02-10T06:04:58;101734.44;;;-5.91;100.00
32083;BME280;18597;48.328;7.932;2023-02-10T06:07:24;101742.19;;;-5.97;100.00
32083;BME280;18597;48.328;7.932;2023-02-10T06:09:50;101742.22;;;-5.94;100.00
32083;BME280;18597;48.328;7.932;2023-02-10T06:12:16;101750.44;;;-5.63;100.00
32083;BME280;18597;48.328;7.932;2023-02-10T06:14:42;101744.06;;;-5.83;100.00
32083;BME280;18597;48.328;7.932;2023-02-10T06:17:08;101744.72;;;-6.00;100.00
32083;BME280;18597;48.328;7.932;2023-02-10T06:19:39;101750.00;;;-5.95;100.00
32083;BME280;18597;48.328;7.932;2023-02-10T06:22:07;101754.91;;;-5.54;100.00
32083;BME280;18597;48.328;7.932;2023-02-10T06:24:34;101746.31;;;-5.49;100.00
32083;BME280;18597;48.328;7.932;2023-02-10T06:26:59;101749.13;;;-5.32;100.00
32083;BME280;18597;48.328;7.932;2023-02-10T06:29:25;101758.50;;;-5.45;100.00
32083;BME280;18597;48.328;7.932;2023-02-10T06:31:51;101756.84;;;-5.40;100.00
32083;BME280;18597;48.328;7.932;2023-02-10T06:34:18;101765.84;;;-5.16;100.00
32083;BME280;18597;48.328;7.932;2023-02-10T06:36:44;101755.78;;;-5.55;100.00
32083;BME280;18597;48.328;7.932;2023-02-10T06:39:09;101761.63;;;-5.70;100.00
32083;BME280;18597;48.328;7.932;2023-02-10T06:41:35;101763.28;;;-5.75;100.00
32083;BME280;18597;48.328;7.932;2023-02-10T06:44:01;101767.06;;;-5.55;100.00
32083;BME280;18597;48.328;7.932;2023-02-10T06:46:27;101784.34;;;-5.60;100.00
32083;BME280;18597;48.328;7.932;2023-02-10T06:48:53;101785.44;;;-5.44;100.00
32083;BME280;18597;48.328;7.932;2023-02-10T06:51:19;101788.09;;;-5.41;100.00
32083;BME280;18597;48.328;7.932;2023-02-10T06:53:45;101788.72;;;-5.59;100.00
32083;BME280;18597;48.328;7.932;2023-02-10T06:56:12;101787.34;;;-5.34;100.00
32083;BME280;18597;48.328;7.932;2023-02-10T06:58:38;101789.97;;;-5.33;100.00
32083;BME280;18597;48.328;7.932;2023-02-10T07:01:10;101787.47;;;-5.22;100.00
32083;BME280;18597;48.328;7.932;2023-02-10T07:03:36;101790.69;;;-5.43;100.00
32083;BME280;18597;48.328;7.932;2023-02-10T07:06:03;101795.03;;;-5.42;100.00
32083;BME280;18597;48.328;7.932;2023-02-10T07:08:29;101790.13;;;-5.20;100.00
32083;BME280;18597;48.328;7.932;2023-02-10T07:10:55;101795.47;;;-5.11;100.00
32083;BME280;18597;48.328;7.932;2023-02-10T07:13:21;101795.56;;;-5.04;100.00
32083;BME280;18597;48.328;7.932;2023-02-10T07:15:47;101798.25;;;-4.97;100.00
32083;BME280;18597;48.328;7.932;2023-02-10T07:18:13;101794.38;;;-4.57;100.00
32083;BME280;18597;48.328;7.932;2023-02-10T07:20:39;101789.66;;;-4.07;100.00
32083;BME280;18597;48.328;7.932;2023-02-10T07:23:05;101794.50;;;-3.36;100.00
32083;BME280;18597;48.328;7.932;2023-02-10T07:25:31;101783.50;;;-2.63;100.00
32083;BME280;18597;48.328;7.932;2023-02-10T07:27:57;101787.00;;;-2.59;100.00
32083;BME280;18597;48.328;7.932;2023-02-10T07:30:23;101786.19;;;-2.34;100.00
32083;BME280;18597;48.328;7.932;2023-02-10T07:32:49;101785.34;;;-2.13;100.00
32083;BME280;18597;48.328;7.932;2023-02-10T07:35:15;101780.97;;;-2.12;100.00
32083;BME280;18597;48.328;7.932;2023-02-10T07:37:41;101781.84;;;-2.21;100.00
32083;BME280;18597;48.328;7.932;2023-02-10T07:40:08;101790.56;;;-1.59;100.00
32083;BME280;18597;48.328;7.932;2023-02-10T07:42:34;101792.28;;;-1.38;100.00
32083;BME280;18597;48.328;7.932;2023-02-10T07:45:00;101779.63;;;-0.36;100.00
32083;BME280;18597;48.328;7.932;2023-02-10T07:47:27;101789.25;;;0.67;100.00
32083;BME280;18597;48.328;7.932;2023-02-10T07:49:53;101789.75;;;0.16;100.00
32083;BME280;18597;48.328;7.932;2023-02-10T07:52:21;101782.75;;;0.14;97.88
32083;BME280;18597;48.328;7.932;2023-02-10T07:54:49;101784.81;;;0.73;100.00
32083;BME280;18597;48.328;7.932;2023-02-10T07:57:15;101783.19;;;1.37;86.42
32083;BME280;18597;48.328;7.932;2023-02-10T07:59:41;101774.69;;;1.77;85.34
32083;BME280;18597;48.328;7.932;2023-02-10T08:02:09;101777.91;;;1.37;82.36
32083;BME280;18597;48.328;7.932;2023-02-10T08:04:35;101787.06;;;0.24;90.71
32083;BME280;18597;48.328;7.932;2023-02-10T08:07:01;101789.44;;;0.50;89.71
32083;BME280;18597;48.328;7.932;2023-02-10T08:09:27;101793.19;;;0.24;92.82
32083;BME280;18597;48.328;7.932;2023-02-10T08:11:53;101792.19;;;0.36;92.73
32083;BME280;18597;48.328;7.932;2023-02-10T08:14:19;101793.44;;;0.86;90.14
32083;BME280;18597;48.328;7.932;2023-02-10T08:16:44;101789.53;;;1.84;80.78
32083;BME280;18597;48.328;7.932;2023-02-10T08:19:10;101788.00;;;1.66;82.42
32083;BME280;18597;48.328;7.932;2023-02-10T08:21:36;101799.56;;;2.16;78.40
32083;BME280;18597;48.328;7.932;2023-02-10T08:24:02;101790.09;;;2.03;77.86
32083;BME280;18597;48.328;7.932;2023-02-10T08:26:28;101791.97;;;1.96;79.22
32083;BME280;18597;48.328;7.932;2023-02-10T08:28:53;101799.06;;;0.51;91.58
32083;BME280;18597;48.328;7.932;2023-02-10T08:31:21;101801.59;;;-0.53;100.00
32083;BME280;18597;48.328;7.932;2023-02-10T08:33:48;101804.47;;;-1.12;100.00
32083;BME280;18597;48.328;7.932;2023-02-10T08:36:17;101816.75;;;-1.32;100.00
32083;BME280;18597;48.328;7.932;2023-02-10T08:38:45;101813.28;;;-1.60;100.00
32083;BME280;18597;48.328;7.932;2023-02-10T08:41:11;101820.28;;;-1.53;100.00
32083;BME280;18597;48.328;7.932;2023-02-10T08:43:37;101819.41;;;-1.49;100.00
32083;BME280;18597;48.328;7.932;2023-02-10T08:46:03;101814.16;;;-1.55;100.00
32083;BME280;18597;48.328;7.932;2023-02-10T08:48:30;101809.78;;;-1.36;100.00
32083;BME280;18597;48.328;7.932;2023-02-10T08:50:56;101807.97;;;-1.17;100.00
32083;BME280;18597;48.328;7.932;2023-02-10T08:53:22;101817.63;;;-1.37;100.00
32083;BME280;18597;48.328;7.932;2023-02-10T08:55:59;101812.41;;;-1.42;100.00
32083;BME280;18597;48.328;7.932;2023-02-10T08:58:25;101806.28;;;-1.44;100.00
32083;BME280;18597;48.328;7.932;2023-02-10T09:00:51;101800.16;;;-1.34;100.00
32083;BME280;18597;48.328;7.932;2023-02-10T09:03:17;101786.13;;;-1.18;100.00
32083;BME280;18597;48.328;7.932;2023-02-10T09:05:43;101783.44;;;-0.96;100.00
32083;BME280;18597;48.328;7.932;2023-02-10T09:08:13;101790.41;;;-1.00;100.00
32083;BME280;18597;48.328;7.932;2023-02-10T09:10:40;101793.94;;;-1.01;100.00
32083;BME280;18597;48.328;7.932;2023-02-10T09:13:06;101782.50;;;-0.83;100.00
32083;BME280;18597;48.328;7.932;2023-02-10T09:15:37;101793.88;;;-0.86;100.00
32083;BME280;18597;48.328;7.932;2023-02-10T09:18:04;101780.72;;;-0.78;100.00
32083;BME280;18597;48.328;7.932;2023-02-10T09:20:34;101773.63;;;-0.58;100.00
32083;BME280;18597;48.328;7.932;2023-02-10T09:23:00;101776.19;;;-0.50;100.00
32083;BME280;18597;48.328;7.932;2023-02-10T09:25:26;101781.41;;;-0.44;100.00
32083;BME280;18597;48.328;7.932;2023-02-10T09:27:52;101783.00;;;-0.18;100.00
32083;BME280;18597;48.328;7.932;2023-02-10T09:30:20;101782.91;;;-0.06;100.00
32083;BME280;18597;48.328;7.932;2023-02-10T09:32:47;101778.34;;;0.14;100.00
32083;BME280;18597;48.328;7.932;2023-02-10T09:35:13;101779.91;;;0.38;100.00
32083;BME280;18597;48.328;7.932;2023-02-10T09:37:38;101781.53;;;0.51;100.00
32083;BME280;18597;48.328;7.932;2023-02-10T09:40:04;101776.97;;;0.67;100.00
32083;BME280;18597;48.328;7.932;2023-02-10T09:45:29;101769.81;;;0.81;100.00
32083;BME280;18597;48.328;7.932;2023-02-10T09:48:17;101773.22;;;0.90;100.00
32083;BME280;18597;48.328;7.932;2023-02-10T09:53:37;101775.56;;;1.16;100.00
32083;BME280;18597;48.328;7.932;2023-02-10T09:56:05;101787.72;;;1.24;100.00
32083;BME280;18597;48.328;7.932;2023-02-10T09:58:41;101785.91;;;1.29;100.00
32083;BME280;18597;48.328;7.932;2023-02-10T10:01:15;101791.09;;;1.37;100.00
32083;BME280;18597;48.328;7.932;2023-02-10T10:03:55;101785.75;;;1.40;100.00
32083;BME280;18597;48.328;7.932;2023-02-10T10:06:32;101778.69;;;1.42;100.00
32083;BME280;18597;48.328;7.932;2023-02-10T10:12:09;101782.00;;;1.59;100.00
32083;BME280;18597;48.328;7.932;2023-02-10T10:14:40;101780.94;;;1.71;100.00
32083;BME280;18597;48.328;7.932;2023-02-10T10:23:36;101781.28;;;2.05;100.00
32083;BME280;18597;48.328;7.932;2023-02-10T10:26:45;101777.44;;;2.25;100.00
32083;BME280;18597;48.328;7.932;2023-02-10T10:35:16;101777.78;;;2.54;100.00
32083;BME280;18597;48.328;7.932;2023-02-10T10:37:43;101777.59;;;2.66;100.00
32083;BME280;18597;48.328;7.932;2023-02-10T10:40:25;101767.81;;;2.70;100.00
32083;BME280;18597;48.328;7.932;2023-02-10T10:42:57;101776.31;;;2.87;100.00
32083;BME280;18597;48.328;7.932;2023-02-10T10:45:32;101757.47;;;3.04;100.00
32083;BME280;18597;48.328;7.932;2023-02-10T10:48:14;101758.84;;;3.22;100.00
32083;BME280;18597;48.328;7.932;2023-02-10T10:50:41;101761.38;;;3.28;100.00
32083;BME280;18597;48.328;7.932;2023-02-10T10:53:19;101761.13;;;3.40;99.71
32083;BME280;18597;48.328;7.932;2023-02-10T10:55:50;101758.28;;;3.49;99.01
32083;BME280;18597;48.328;7.932;2023-02-10T10:58:40;101750.94;;;3.60;96.83
32083;BME280;18597;48.328;7.932;2023-02-10T11:01:08;101744.63;;;3.68;93.17
32083;BME280;18597;48.328;7.932;2023-02-10T11:03:34;101740.31;;;3.64;93.61
32083;BME280;18597;48.328;7.932;2023-02-10T11:06:09;101745.44;;;3.71;91.67
32083;BME280;18597;48.328;7.932;2023-02-10T11:08:52;101745.31;;;3.76;94.34
32083;BME280;18597;48.328;7.932;2023-02-10T11:11:19;101732.72;;;3.87;92.52
32083;BME280;18597;48.328;7.932;2023-02-10T11:13:53;101737.22;;;4.17;89.94
32083;BME280;18597;48.328;7.932;2023-02-10T11:16:21;101728.59;;;4.43;91.52
32083;BME280;18597;48.328;7.932;2023-02-10T11:19:00;101725.91;;;4.45;91.25
32083;BME280;18597;48.328;7.932;2023-02-10T11:21:41;101733.19;;;4.37;89.14
32083;BME280;18597;48.328;7.932;2023-02-10T11:24:26;101727.03;;;4.36;86.67
32083;BME280;18597;48.328;7.932;2023-02-10T11:27:14;101713.94;;;4.30;86.25
32083;BME280;18597;48.328;7.932;2023-02-10T11:32:29;101726.31;;;4.30;84.89
32083;BME280;18597;48.328;7.932;2023-02-10T11:34:59;101719.94;;;4.37;85.08
32083;BME280;18597;48.328;7.932;2023-02-10T11:37:36;101722.19;;;4.52;84.61
32083;BME280;18597;48.328;7.932;2023-02-10T11:40:20;101736.09;;;4.60;82.43
32083;BME280;18597;48.328;7.932;2023-02-10T11:42:51;101726.50;;;4.56;81.85
32083;BME280;18597;48.328;7.932;2023-02-10T11:45:23;101726.41;;;4.59;82.74
32083;BME280;18597;48.328;7.932;2023-02-10T11:48:04;101730.00;;;4.57;81.88
32083;BME280;18597;48.328;7.932;2023-02-10T11:50:34;101723.06;;;4.53;82.33
32083;BME280;18597;48.328;7.932;2023-02-10T11:53:00;101721.06;;;4.61;83.29
32083;BME280;18597;48.328;7.932;2023-02-10T11:55:55;101726.41;;;4.59;82.99
32083;BME280;18597;48.328;7.932;2023-02-10T12:04:19;101718.66;;;4.84;81.01
32083;BME280;18597;48.328;7.932;2023-02-10T12:13:09;101713.09;;;4.93;80.88
32083;BME280;18597;48.328;7.932;2023-02-10T12:18:58;101714.59;;;5.02;79.20
32083;BME280;18597;48.328;7.932;2023-02-10T12:22:18;101711.84;;;5.07;77.86
32083;BME280;18597;48.328;7.932;2023-02-10T12:30:57;101701.25;;;5.05;75.58
32083;BME280;18597;48.328;7.932;2023-02-10T12:36:29;101682.56;;;5.10;76.69
32083;BME280;18597;48.328;7.932;2023-02-10T12:39:22;101686.03;;;5.12;75.34
32083;BME280;18597;48.328;7.932;2023-02-10T12:45:28;101688.16;;;5.30;75.80
32083;BME280;18597;48.328;7.932;2023-02-10T12:51:26;101691.25;;;5.44;74.88
32083;BME280;18597;48.328;7.932;2023-02-10T12:54:08;101689.16;;;5.54;75.41
32083;BME280;18597;48.328;7.932;2023-02-10T12:56:45;101687.38;;;5.54;74.96
32083;BME280;18597;48.328;7.932;2023-02-10T12:59:24;101693.66;;;5.52;75.05
32083;BME280;18597;48.328;7.932;2023-02-10T13:02:00;101688.19;;;5.56;76.57
32083;BME280;18597;48.328;7.932;2023-02-10T13:04:32;101684.53;;;5.61;76.33
32083;BME280;18597;48.328;7.932;2023-02-10T13:07:16;101681.00;;;5.60;76.56
32083;BME280;18597;48.328;7.932;2023-02-10T13:10:46;101683.44;;;5.66;76.70
32083;BME280;18597;48.328;7.932;2023-02-10T13:12:39;101677.28;;;5.66;76.24
32083;BME280;18597;48.328;7.932;2023-02-10T13:15:18;101683.44;;;5.66;76.18
32083;BME280;18597;48.328;7.932;2023-02-10T13:17:49;101687.06;;;5.64;76.49
32083;BME280;18597;48.328;7.932;2023-02-10T13:20:52;101687.00;;;5.65;77.23
32083;BME280;18597;48.328;7.932;2023-02-10T13:29:49;101677.50;;;5.58;76.07
32083;BME280;18597;48.328;7.932;2023-02-10T13:35:01;101678.22;;;5.37;76.89
32083;BME280;18597;48.328;7.932;2023-02-10T13:37:52;101677.31;;;5.38;74.07
32083;BME280;18597;48.328;7.932;2023-02-10T13:41:00;101675.66;;;5.34;72.26
32083;BME280;18597;48.328;7.932;2023-02-10T13:43:34;101669.81;;;5.50;71.73
32083;BME280;18597;48.328;7.932;2023-02-10T13:46:01;101675.16;;;5.49;71.97
32083;BME280;18597;48.328;7.932;2023-02-10T13:48:33;101677.31;;;5.38;73.22
32083;BME280;18597;48.328;7.932;2023-02-10T13:51:03;101674.91;;;5.28;73.13
32083;BME280;18597;48.328;7.932;2023-02-10T13:56:29;101685.97;;;5.43;70.82
32083;BME280;18597;48.328;7.932;2023-02-10T14:04:44;101688.56;;;5.72;69.96
32083;BME280;18597;48.328;7.932;2023-02-10T14:15:37;101683.56;;;5.90;66.59
32083;BME280;18597;48.328;7.932;2023-02-10T14:18:22;101687.63;;;5.73;69.14
32083;BME280;18597;48.328;7.932;2023-02-10T14:21:12;101683.56;;;5.63;69.57
32083;BME280;18597;48.328;7.932;2023-02-10T14:23:41;101680.84;;;5.65;68.78
32083;BME280;18597;48.328;7.932;2023-02-10T14:26:21;101688.66;;;5.41;70.94
32083;BME280;18597;48.328;7.932;2023-02-10T14:31:30;101689.38;;;5.18;74.66